Boston, Massachusetts
Traffic Map
Current Weather Conditions
Boston, Massachusetts
Scattered Clouds
Scattered Clouds
20°
Feels Like: 20°
Wind Chill: 20° Ceiling: Unl
Heat Index: 20° Visibility: 10mi
Dew Point: Wind: 6mph
Humidity: 37% Direction: ° ()
Pressure: 30.26in Gusts: 0mph
Raw Report DataKBOS 231754Z VRB05KT 10SM FEW055 SCT270 20/05 A3026 RMK AO2 SLP245 T02000050 10200 20117 58006
Traffic Incident Summary
Active as of:
Severity:
Category:
InformationThere was an issue retrieving the traffic information for this location. Please try a different location or try again shortly.
Advertisements
Track Severe Weather on mobile